createdAt,value
2023-01-03T00:00:08.169Z,7.49
2023-01-03T00:00:19.018Z,7.47
2023-01-03T00:00:29.882Z,7.47
2023-01-03T00:00:40.766Z,7.47
2023-01-03T00:00:53.246Z,7.45
2023-01-03T00:01:05.716Z,7.45
2023-01-03T00:01:16.470Z,7.44
2023-01-03T00:01:28.447Z,7.44
2023-01-03T00:01:43.206Z,7.44
2023-01-03T00:01:56.203Z,7.42
2023-01-03T00:02:07.005Z,7.42
2023-01-03T00:02:17.838Z,7.41
2023-01-03T00:02:28.585Z,7.40
2023-01-03T00:02:41.053Z,7.40
2023-01-03T00:02:51.867Z,7.38
2023-01-03T00:03:02.587Z,7.38
2023-01-03T00:03:13.380Z,7.37
2023-01-03T00:03:24.113Z,7.37
2023-01-03T00:03:34.830Z,7.35
2023-01-03T00:03:46.834Z,7.35
2023-01-03T00:03:57.606Z,7.35
2023-01-03T00:04:08.456Z,7.34
2023-01-03T00:04:19.307Z,7.32
2023-01-03T00:04:30.122Z,7.31
2023-01-03T00:04:48.987Z,7.31
2023-01-03T00:04:58.974Z,7.31
2023-01-03T00:05:09.719Z,7.29
2023-01-03T00:05:20.467Z,7.27
2023-01-03T00:05:31.209Z,7.27
2023-01-03T00:05:41.960Z,7.27
2023-01-03T00:05:52.705Z,7.29
2023-01-03T00:06:03.438Z,7.27
2023-01-03T00:06:14.208Z,7.26
2023-01-03T00:06:27.578Z,7.26
2023-01-03T00:06:38.310Z,7.24
2023-01-03T00:06:49.092Z,7.26
2023-01-03T00:06:59.870Z,7.26
2023-01-03T00:07:10.610Z,7.24
2023-01-03T00:07:21.359Z,7.24
2023-01-03T00:07:32.128Z,7.24
2023-01-03T00:07:42.871Z,7.24
2023-01-03T00:07:55.629Z,7.23
2023-01-03T00:08:08.851Z,7.24
2023-01-03T00:08:21.299Z,7.24
2023-01-03T00:08:32.087Z,7.23
2023-01-03T00:08:42.854Z,7.23
2023-01-03T00:08:53.696Z,7.24
2023-01-03T00:09:05.399Z,7.23
2023-01-03T00:09:16.144Z,7.24
2023-01-03T00:09:26.893Z,7.22
2023-01-03T00:09:39.117Z,7.23
2023-01-03T00:09:52.841Z,7.22
2023-01-03T00:10:03.598Z,7.22
2023-01-03T00:10:14.352Z,7.22
2023-01-03T00:10:25.103Z,7.22
2023-01-03T00:10:35.861Z,7.22
2023-01-03T00:10:46.579Z,7.23
2023-01-03T00:10:57.312Z,7.22
2023-01-03T00:11:09.051Z,7.22
2023-01-03T00:11:20.770Z,7.23
2023-01-03T00:11:33.974Z,7.23
2023-01-03T00:11:44.720Z,7.20
2023-01-03T00:12:02.515Z,7.23
2023-01-03T00:12:15.771Z,7.22
2023-01-03T00:12:31.175Z,7.22
2023-01-03T00:12:42.205Z,7.22
2023-01-03T00:12:52.930Z,7.20
2023-01-03T00:13:03.662Z,7.19
2023-01-03T00:13:14.426Z,7.20
2023-01-03T00:13:25.164Z,7.22
2023-01-03T00:13:35.895Z,7.20
2023-01-03T00:13:46.635Z,7.22
2023-01-03T00:13:57.360Z,7.22
2023-01-03T00:14:08.091Z,7.22
2023-01-03T00:14:18.843Z,7.23
2023-01-03T00:14:29.584Z,7.22
2023-01-03T00:14:40.383Z,7.23
2023-01-03T00:14:51.120Z,7.23
2023-01-03T00:15:01.861Z,7.23
2023-01-03T00:15:12.609Z,7.23
2023-01-03T00:15:23.336Z,7.23
2023-01-03T00:15:34.070Z,7.24
2023-01-03T00:15:44.824Z,7.23
2023-01-03T00:15:55.561Z,7.24
2023-01-03T00:16:06.299Z,7.23
2023-01-03T00:16:17.110Z,7.24
2023-01-03T00:16:27.946Z,7.23
2023-01-03T00:16:38.707Z,7.23
2023-01-03T00:16:49.526Z,7.24
2023-01-03T00:17:00.331Z,7.24
2023-01-03T00:17:11.218Z,7.23
2023-01-03T00:17:22.185Z,7.23
2023-01-03T00:17:33.908Z,7.23
2023-01-03T00:17:44.674Z,7.26
2023-01-03T00:17:55.411Z,7.23
2023-01-03T00:18:08.610Z,7.23
2023-01-03T00:18:22.880Z,7.24
2023-01-03T00:18:35.353Z,7.23
2023-01-03T00:18:47.069Z,7.24
2023-01-03T00:18:57.802Z,7.24
2023-01-03T00:19:08.541Z,7.23
2023-01-03T00:19:21.248Z,7.24
2023-01-03T00:19:31.975Z,7.22
2023-01-03T00:19:42.744Z,7.23
2023-01-03T00:19:53.493Z,7.23
2023-01-03T00:20:05.980Z,7.23
2023-01-03T00:20:19.155Z,7.23
2023-01-03T00:20:30.864Z,7.23
2023-01-03T00:20:43.075Z,7.22
2023-01-03T00:20:53.783Z,7.22
2023-01-03T00:21:06.248Z,7.22
2023-01-03T00:21:16.983Z,7.20
2023-01-03T00:21:27.775Z,7.20
2023-01-03T00:21:38.514Z,7.20
2023-01-03T00:21:50.200Z,7.19
2023-01-03T00:22:02.644Z,7.19
2023-01-03T00:22:13.435Z,7.19
2023-01-03T00:22:26.635Z,7.17
2023-01-03T00:22:39.375Z,7.17
2023-01-03T00:22:51.075Z,7.17
2023-01-03T00:23:01.835Z,7.17
2023-01-03T00:23:14.259Z,7.17
2023-01-03T00:23:24.992Z,7.17
2023-01-03T00:23:35.751Z,7.16
2023-01-03T00:23:46.499Z,7.17
2023-01-03T00:23:57.234Z,7.17
2023-01-03T00:24:07.984Z,7.17
2023-01-03T00:24:18.728Z,7.19
2023-01-03T00:24:29.452Z,7.17
2023-01-03T00:24:40.203Z,7.19
2023-01-03T00:24:50.943Z,7.19
2023-01-03T00:25:01.701Z,7.17
2023-01-03T00:25:12.457Z,7.19
2023-01-03T00:25:23.198Z,7.19
2023-01-03T00:25:34.913Z,7.20
2023-01-03T00:25:45.634Z,7.23
2023-01-03T00:25:58.334Z,7.23
2023-01-03T00:26:11.735Z,7.22
2023-01-03T00:26:22.464Z,7.22
2023-01-03T00:26:33.193Z,7.24
2023-01-03T00:26:43.945Z,7.23
2023-01-03T00:26:54.683Z,7.23
2023-01-03T00:27:05.420Z,7.23
2023-01-03T00:27:16.148Z,7.22
2023-01-03T00:27:26.884Z,7.24
2023-01-03T00:27:40.101Z,7.23
2023-01-03T00:27:50.854Z,7.23
2023-01-03T00:28:01.599Z,7.23
2023-01-03T00:28:12.367Z,7.23
2023-01-03T00:28:23.103Z,7.24
2023-01-03T00:28:37.368Z,7.24
2023-01-03T00:28:49.107Z,7.24
2023-01-03T00:29:01.562Z,7.24
2023-01-03T00:29:12.317Z,7.24
2023-01-03T00:29:24.027Z,7.24
2023-01-03T00:29:34.765Z,7.24
2023-01-03T00:29:45.548Z,7.23
2023-01-03T00:29:57.716Z,7.22
2023-01-03T00:30:08.507Z,7.24
2023-01-03T00:30:21.425Z,7.23
2023-01-03T00:30:32.198Z,7.23
2023-01-03T00:30:42.991Z,7.22
2023-01-03T00:30:53.810Z,7.22
2023-01-03T00:31:04.608Z,7.22
2023-01-03T00:31:15.392Z,7.20
2023-01-03T00:31:27.874Z,7.20
2023-01-03T00:31:38.597Z,7.22
2023-01-03T00:31:51.063Z,7.20
2023-01-03T00:32:02.763Z,7.20
2023-01-03T00:32:13.490Z,7.20
2023-01-03T00:32:24.220Z,7.19
2023-01-03T00:32:34.992Z,7.19
2023-01-03T00:32:47.716Z,7.17
2023-01-03T00:33:00.467Z,7.17
2023-01-03T00:33:12.190Z,7.17
2023-01-03T00:33:22.926Z,7.17
2023-01-03T00:33:33.675Z,7.17
2023-01-03T00:33:44.415Z,7.17
2023-01-03T00:33:55.201Z,7.16
2023-01-03T00:34:06.181Z,7.17
2023-01-03T00:34:16.924Z,7.16
2023-01-03T00:34:27.645Z,7.15
2023-01-03T00:34:38.383Z,7.15
2023-01-03T00:34:49.156Z,7.15
2023-01-03T00:35:04.789Z,7.15
2023-01-03T00:35:17.235Z,7.15
2023-01-03T00:35:27.965Z,7.15
2023-01-03T00:35:40.376Z,7.16
2023-01-03T00:35:51.106Z,7.15
2023-01-03T00:36:01.886Z,7.16
2023-01-03T00:36:12.692Z,7.16
2023-01-03T00:36:23.434Z,7.16
2023-01-03T00:36:34.187Z,7.16
2023-01-03T00:36:44.913Z,7.16
2023-01-03T00:36:56.621Z,7.17
2023-01-03T00:37:07.388Z,7.17
2023-01-03T00:37:18.106Z,7.16
2023-01-03T00:37:30.550Z,7.17
2023-01-03T00:37:41.288Z,7.17
2023-01-03T00:37:52.018Z,7.17
2023-01-03T00:38:02.789Z,7.17
2023-01-03T00:38:14.509Z,7.17
2023-01-03T00:38:25.239Z,7.17
2023-01-03T00:38:35.987Z,7.19
2023-01-03T00:38:48.687Z,7.17
2023-01-03T00:39:04.570Z,7.17
2023-01-03T00:39:15.340Z,7.17
2023-01-03T00:39:27.306Z,7.17
2023-01-03T00:39:38.052Z,7.17
2023-01-03T00:39:48.797Z,7.17
2023-01-03T00:40:02.004Z,7.17
2023-01-03T00:40:12.739Z,7.17
2023-01-03T00:40:24.620Z,7.19
2023-01-03T00:40:35.374Z,7.19
2023-01-03T00:40:46.157Z,7.17
2023-01-03T00:40:57.882Z,7.20
2023-01-03T00:41:10.289Z,7.20
2023-01-03T00:41:22.784Z,7.22
2023-01-03T00:41:33.521Z,7.20
2023-01-03T00:41:44.277Z,7.20
2023-01-03T00:41:55.050Z,7.22
2023-01-03T00:42:06.764Z,7.23
2023-01-03T00:42:17.495Z,7.23
2023-01-03T00:42:28.266Z,7.26
2023-01-03T00:42:39.007Z,7.24
2023-01-03T00:42:51.447Z,7.24
2023-01-03T00:43:04.238Z,7.26
2023-01-03T00:43:18.452Z,7.26
2023-01-03T00:43:30.866Z,7.27
2023-01-03T00:43:41.599Z,7.26
2023-01-03T00:43:52.395Z,7.27
2023-01-03T00:44:03.157Z,7.27
2023-01-03T00:44:15.568Z,7.27
2023-01-03T00:44:26.310Z,7.26
2023-01-03T00:44:37.038Z,7.27
2023-01-03T00:44:47.791Z,7.27
2023-01-03T00:44:58.519Z,7.27
2023-01-03T00:45:10.665Z,7.26
2023-01-03T00:45:25.305Z,7.29
2023-01-03T00:45:37.326Z,7.26
2023-01-03T00:45:48.107Z,7.29
2023-01-03T00:46:00.533Z,7.27
2023-01-03T00:46:11.288Z,7.26
2023-01-03T00:46:22.129Z,7.27
2023-01-03T00:46:32.920Z,7.27
2023-01-03T00:46:43.713Z,7.26
2023-01-03T00:46:54.458Z,7.27
2023-01-03T00:47:05.191Z,7.27
2023-01-03T00:47:15.939Z,7.27
2023-01-03T00:47:26.669Z,7.26
2023-01-03T00:47:37.401Z,7.27
2023-01-03T00:47:49.108Z,7.27
2023-01-03T00:47:59.849Z,7.26
2023-01-03T00:48:10.598Z,7.26
2023-01-03T00:48:21.362Z,7.26
2023-01-03T00:48:33.100Z,7.26
2023-01-03T00:48:43.831Z,7.26
2023-01-03T00:48:54.594Z,7.24
2023-01-03T00:49:05.320Z,7.26
2023-01-03T00:49:18.069Z,7.27
2023-01-03T00:49:30.853Z,7.27
2023-01-03T00:49:43.041Z,7.29
2023-01-03T00:49:53.780Z,7.27
2023-01-03T00:50:04.760Z,7.27
2023-01-03T00:50:15.493Z,7.27
2023-01-03T00:50:26.242Z,7.29
2023-01-03T00:50:36.970Z,7.29
2023-01-03T00:50:49.430Z,7.29
2023-01-03T00:51:00.169Z,7.31
2023-01-03T00:51:10.914Z,7.27
2023-01-03T00:51:23.632Z,7.29
2023-01-03T00:51:35.372Z,7.29
2023-01-03T00:51:46.130Z,7.31
2023-01-03T00:51:57.843Z,7.31
2023-01-03T00:52:10.100Z,7.31
2023-01-03T00:52:20.820Z,7.32
2023-01-03T00:52:31.590Z,7.34
2023-01-03T00:52:42.330Z,7.32
2023-01-03T00:52:54.743Z,7.31
2023-01-03T00:53:05.482Z,7.31
2023-01-03T00:53:16.260Z,7.31
2023-01-03T00:53:29.490Z,7.32
2023-01-03T00:53:41.941Z,7.32
2023-01-03T00:53:54.423Z,7.32
2023-01-03T00:54:05.169Z,7.32
2023-01-03T00:54:15.910Z,7.32
2023-01-03T00:54:26.659Z,7.34
2023-01-03T00:54:38.361Z,7.32
2023-01-03T00:54:49.109Z,7.34
2023-01-03T00:54:59.864Z,7.32
2023-01-03T00:55:10.603Z,7.32
2023-01-03T00:55:21.352Z,7.34
2023-01-03T00:55:33.158Z,7.34
2023-01-03T00:55:43.919Z,7.32
2023-01-03T00:55:56.406Z,7.34
2023-01-03T00:56:08.852Z,7.34
2023-01-03T00:56:21.272Z,7.32
2023-01-03T00:56:32.017Z,7.34
2023-01-03T00:56:44.714Z,7.32
2023-01-03T00:56:55.453Z,7.34
2023-01-03T00:57:06.224Z,7.34
2023-01-03T00:57:16.953Z,7.34
2023-01-03T00:57:27.700Z,7.34
2023-01-03T00:57:40.150Z,7.34
2023-01-03T00:57:50.889Z,7.34
2023-01-03T00:58:02.599Z,7.34
2023-01-03T00:58:13.347Z,7.34
2023-01-03T00:58:24.092Z,7.35
2023-01-03T00:58:34.844Z,7.34
2023-01-03T00:58:45.586Z,7.35
2023-01-03T00:58:58.005Z,7.34
2023-01-03T00:59:08.799Z,7.35
2023-01-03T00:59:19.561Z,7.35
2023-01-03T00:59:32.538Z,7.35
2023-01-03T00:59:47.260Z,7.34
2023-01-03T01:00:00.227Z,7.35
2023-01-03T01:00:11.983Z,7.37
2023-01-03T01:00:22.724Z,7.38
2023-01-03T01:00:34.485Z,7.38
2023-01-03T01:00:45.236Z,7.38
2023-01-03T01:00:57.573Z,7.40
2023-01-03T01:01:08.499Z,7.40
2023-01-03T01:01:19.504Z,7.41
2023-01-03T01:01:31.480Z,7.40
2023-01-03T01:01:46.796Z,7.41
2023-01-03T01:01:58.117Z,7.40
2023-01-03T01:02:09.172Z,7.41
2023-01-03T01:02:20.222Z,7.42
2023-01-03T01:02:31.267Z,7.44
2023-01-03T01:02:43.519Z,7.44
2023-01-03T01:02:54.550Z,7.44
2023-01-03T01:03:05.669Z,7.44
2023-01-03T01:03:18.058Z,7.45
2023-01-03T01:03:30.890Z,7.45
2023-01-03T01:03:41.873Z,7.45
2023-01-03T01:03:52.708Z,7.47
2023-01-03T01:04:03.517Z,7.50
2023-01-03T01:04:14.276Z,7.47
2023-01-03T01:04:25.027Z,7.52
2023-01-03T01:04:36.742Z,7.52
2023-01-03T01:04:47.527Z,7.53
2023-01-03T01:04:58.367Z,7.53
2023-01-03T01:05:09.157Z,7.52
2023-01-03T01:05:19.933Z,7.52
2023-01-03T01:05:30.673Z,7.55
2023-01-03T01:05:41.433Z,7.53
2023-01-03T01:05:53.425Z,7.53
2023-01-03T01:06:04.196Z,7.55
2023-01-03T01:06:14.954Z,7.53
2023-01-03T01:06:25.706Z,7.53
2023-01-03T01:06:36.434Z,7.55
2023-01-03T01:06:49.365Z,7.53
2023-01-03T01:07:01.157Z,7.53
2023-01-03T01:07:11.963Z,7.53
2023-01-03T01:07:23.672Z,7.53
2023-01-03T01:07:34.418Z,7.53
2023-01-03T01:07:45.177Z,7.53
2023-01-03T01:07:55.941Z,7.53
2023-01-03T01:08:07.625Z,7.52
2023-01-03T01:08:18.371Z,7.50
2023-01-03T01:08:29.125Z,7.50
2023-01-03T01:08:39.867Z,7.50
2023-01-03T01:08:50.624Z,7.50
2023-01-03T01:09:01.382Z,7.47
2023-01-03T01:09:13.127Z,7.47
2023-01-03T01:09:24.823Z,7.47
2023-01-03T01:09:35.585Z,7.45
2023-01-03T01:09:46.324Z,7.44
2023-01-03T01:09:57.056Z,7.44
2023-01-03T01:10:07.804Z,7.42
2023-01-03T01:10:18.567Z,7.42
2023-01-03T01:10:29.324Z,7.41
2023-01-03T01:10:40.066Z,7.40
2023-01-03T01:10:50.815Z,7.40
2023-01-03T01:11:01.549Z,7.40
2023-01-03T01:11:12.315Z,7.40
2023-01-03T01:11:23.067Z,7.37
2023-01-03T01:11:33.827Z,7.37
2023-01-03T01:11:44.586Z,7.35
2023-01-03T01:11:55.338Z,7.35
2023-01-03T01:12:06.075Z,7.35
2023-01-03T01:12:16.818Z,7.34
2023-01-03T01:12:27.556Z,7.35
2023-01-03T01:12:38.300Z,7.34
2023-01-03T01:12:49.019Z,7.34
2023-01-03T01:12:59.761Z,7.34
2023-01-03T01:13:11.491Z,7.32
2023-01-03T01:13:22.235Z,7.32
2023-01-03T01:13:33.006Z,7.32
2023-01-03T01:13:43.845Z,7.31
2023-01-03T01:13:54.584Z,7.31
2023-01-03T01:14:05.356Z,7.31
2023-01-03T01:14:16.134Z,7.31
2023-01-03T01:14:26.875Z,7.29
2023-01-03T01:14:40.064Z,7.29
2023-01-03T01:14:50.810Z,7.27
2023-01-03T01:15:01.556Z,7.27
2023-01-03T01:15:14.005Z,7.26
2023-01-03T01:15:24.754Z,7.26
2023-01-03T01:15:35.542Z,7.24
2023-01-03T01:15:46.425Z,7.26
2023-01-03T01:15:57.223Z,7.26
2023-01-03T01:16:12.461Z,7.24
2023-01-03T01:16:23.311Z,7.24
2023-01-03T01:16:34.077Z,7.23
2023-01-03T01:16:44.840Z,7.22
2023-01-03T01:16:55.619Z,7.22
2023-01-03T01:17:07.874Z,7.22
2023-01-03T01:17:22.984Z,7.20
2023-01-03T01:17:33.987Z,7.20
2023-01-03T01:17:45.718Z,7.19
2023-01-03T01:17:56.471Z,7.19
2023-01-03T01:18:09.667Z,7.20
2023-01-03T01:18:20.421Z,7.20
2023-01-03T01:18:31.156Z,7.19
2023-01-03T01:18:41.885Z,7.17
2023-01-03T01:18:52.635Z,7.19
2023-01-03T01:19:03.363Z,7.19
2023-01-03T01:19:14.096Z,7.17
2023-01-03T01:19:24.876Z,7.19
2023-01-03T01:19:35.641Z,7.17
2023-01-03T01:19:48.121Z,7.17
2023-01-03T01:19:58.846Z,7.19
2023-01-03T01:20:09.571Z,7.17
2023-01-03T01:20:20.292Z,7.20
2023-01-03T01:20:31.030Z,7.17
2023-01-03T01:20:42.735Z,7.19
2023-01-03T01:20:54.485Z,7.17
2023-01-03T01:21:05.238Z,7.19
2023-01-03T01:21:15.972Z,7.17
2023-01-03T01:21:26.704Z,7.19
2023-01-03T01:21:37.447Z,7.19
2023-01-03T01:21:48.185Z,7.19
2023-01-03T01:22:00.629Z,7.19
2023-01-03T01:22:11.404Z,7.19
2023-01-03T01:22:23.862Z,7.20
2023-01-03T01:22:34.587Z,7.20
2023-01-03T01:22:45.318Z,7.19
2023-01-03T01:22:56.056Z,7.20
2023-01-03T01:23:06.806Z,7.22
2023-01-03T01:23:17.528Z,7.20
2023-01-03T01:23:30.797Z,7.20
2023-01-03T01:23:41.549Z,7.20
2023-01-03T01:23:52.296Z,7.20
2023-01-03T01:24:06.136Z,7.22
2023-01-03T01:24:18.144Z,7.20
2023-01-03T01:24:31.652Z,7.22
2023-01-03T01:24:44.883Z,7.22
2023-01-03T01:24:56.596Z,7.20
2023-01-03T01:25:07.355Z,7.20
2023-01-03T01:25:19.088Z,7.22
2023-01-03T01:25:33.290Z,7.22
2023-01-03T01:25:44.017Z,7.22
2023-01-03T01:25:54.771Z,7.22
2023-01-03T01:26:07.975Z,7.22
2023-01-03T01:26:20.425Z,7.22
2023-01-03T01:26:35.139Z,7.22
2023-01-03T01:26:47.568Z,7.22
2023-01-03T01:26:59.302Z,7.23
2023-01-03T01:27:10.037Z,7.23
2023-01-03T01:27:20.791Z,7.22
2023-01-03T01:27:33.244Z,7.20
2023-01-03T01:27:45.248Z,7.22
2023-01-03T01:27:58.495Z,7.22
2023-01-03T01:28:09.238Z,7.22
2023-01-03T01:28:20.000Z,7.20
2023-01-03T01:28:32.243Z,7.23
2023-01-03T01:28:42.990Z,7.22
2023-01-03T01:28:53.739Z,7.22
2023-01-03T01:29:04.487Z,7.23
2023-01-03T01:29:16.188Z,7.23
2023-01-03T01:29:26.924Z,7.22
2023-01-03T01:29:37.660Z,7.24
2023-01-03T01:29:49.857Z,7.23
2023-01-03T01:30:03.073Z,7.23
2023-01-03T01:30:13.797Z,7.23
2023-01-03T01:30:24.549Z,7.23
2023-01-03T01:30:35.299Z,7.23
2023-01-03T01:30:48.954Z,7.23
2023-01-03T01:30:59.719Z,7.24
2023-01-03T01:31:11.527Z,7.24
2023-01-03T01:31:22.429Z,7.24
2023-01-03T01:31:33.265Z,7.26
2023-01-03T01:31:44.037Z,7.26
2023-01-03T01:31:54.828Z,7.24
2023-01-03T01:32:05.569Z,7.26
2023-01-03T01:32:17.259Z,7.26
2023-01-03T01:32:27.991Z,7.26
2023-01-03T01:32:39.709Z,7.26
2023-01-03T01:32:50.446Z,7.26
2023-01-03T01:33:01.219Z,7.24
2023-01-03T01:33:11.939Z,7.24
2023-01-03T01:33:22.716Z,7.26
2023-01-03T01:33:33.450Z,7.27
2023-01-03T01:33:45.706Z,7.26
2023-01-03T01:33:57.410Z,7.27
2023-01-03T01:34:08.174Z,7.26
2023-01-03T01:34:20.589Z,7.27
2023-01-03T01:34:31.355Z,7.27
2023-01-03T01:34:42.098Z,7.27
2023-01-03T01:34:52.840Z,7.26
2023-01-03T01:35:03.586Z,7.27
2023-01-03T01:35:15.302Z,7.29
2023-01-03T01:35:26.080Z,7.27
2023-01-03T01:35:38.524Z,7.27
2023-01-03T01:35:49.253Z,7.29
2023-01-03T01:36:00.948Z,7.29
2023-01-03T01:36:11.683Z,7.29
2023-01-03T01:36:22.422Z,7.29
2023-01-03T01:36:33.143Z,7.29
2023-01-03T01:36:43.901Z,7.31
2023-01-03T01:36:58.660Z,7.31
2023-01-03T01:37:09.442Z,7.32
2023-01-03T01:37:20.232Z,7.31
2023-01-03T01:37:30.970Z,7.31
2023-01-03T01:37:41.732Z,7.29
2023-01-03T01:37:54.476Z,7.31
2023-01-03T01:38:07.259Z,7.31
2023-01-03T01:38:19.009Z,7.31
2023-01-03T01:38:29.752Z,7.32
2023-01-03T01:38:40.514Z,7.32
2023-01-03T01:38:51.297Z,7.31
2023-01-03T01:39:02.061Z,7.31
2023-01-03T01:39:14.549Z,7.34
2023-01-03T01:39:25.288Z,7.32
2023-01-03T01:39:37.724Z,7.32
2023-01-03T01:39:49.420Z,7.32
2023-01-03T01:40:00.149Z,7.32
2023-01-03T01:40:11.856Z,7.32
2023-01-03T01:40:24.313Z,7.34
2023-01-03T01:40:35.050Z,7.34
2023-01-03T01:40:45.783Z,7.34
2023-01-03T01:40:58.229Z,7.34
2023-01-03T01:41:08.972Z,7.35
2023-01-03T01:41:19.728Z,7.34
2023-01-03T01:41:31.450Z,7.35
2023-01-03T01:41:42.182Z,7.34
2023-01-03T01:41:55.384Z,7.34
2023-01-03T01:42:06.126Z,7.34
2023-01-03T01:42:20.306Z,7.37
2023-01-03T01:42:31.595Z,7.34
2023-01-03T01:42:44.804Z,7.35
2023-01-03T01:42:55.587Z,7.35
2023-01-03T01:43:08.020Z,7.35
2023-01-03T01:43:19.756Z,7.37
2023-01-03T01:43:30.518Z,7.35
2023-01-03T01:43:41.260Z,7.35
2023-01-03T01:43:51.989Z,7.35
2023-01-03T01:44:03.729Z,7.35
2023-01-03T01:44:15.452Z,7.37
2023-01-03T01:44:27.289Z,7.37
2023-01-03T01:44:40.032Z,7.37
2023-01-03T01:44:50.779Z,7.37
2023-01-03T01:45:01.554Z,7.35
2023-01-03T01:45:12.273Z,7.35
2023-01-03T01:45:23.020Z,7.35
2023-01-03T01:45:33.743Z,7.35
2023-01-03T01:45:46.194Z,7.35
2023-01-03T01:45:58.684Z,7.34
2023-01-03T01:46:09.456Z,7.35
2023-01-03T01:46:21.968Z,7.34
2023-01-03T01:46:33.983Z,7.35
2023-01-03T01:46:46.556Z,7.35
2023-01-03T01:46:57.290Z,7.34
2023-01-03T01:47:09.399Z,7.32
2023-01-03T01:47:21.976Z,7.32
2023-01-03T01:47:33.700Z,7.34
2023-01-03T01:47:44.417Z,7.32
2023-01-03T01:47:55.162Z,7.31
2023-01-03T01:48:07.371Z,7.31
2023-01-03T01:48:19.585Z,7.31
2023-01-03T01:48:31.814Z,7.31
2023-01-03T01:48:42.579Z,7.29
2023-01-03T01:48:53.306Z,7.29
2023-01-03T01:49:05.011Z,7.31
2023-01-03T01:49:16.704Z,7.31
2023-01-03T01:49:27.447Z,7.31
2023-01-03T01:49:38.195Z,7.27
2023-01-03T01:49:49.095Z,7.29
2023-01-03T01:49:59.855Z,7.27
2023-01-03T01:50:10.592Z,7.27
2023-01-03T01:50:21.347Z,7.27
2023-01-03T01:50:33.813Z,7.27
2023-01-03T01:50:45.524Z,7.27
2023-01-03T01:50:56.264Z,7.26
2023-01-03T01:51:06.986Z,7.26
2023-01-03T01:51:17.757Z,7.26
2023-01-03T01:51:30.202Z,7.26
2023-01-03T01:51:40.964Z,7.24
2023-01-03T01:51:53.424Z,7.24
2023-01-03T01:52:04.187Z,7.24
2023-01-03T01:52:15.875Z,7.23
2023-01-03T01:52:26.643Z,7.24
2023-01-03T01:52:37.363Z,7.23
2023-01-03T01:52:48.104Z,7.24
2023-01-03T01:53:00.330Z,7.23
2023-01-03T01:53:11.073Z,7.23
2023-01-03T01:53:21.807Z,7.22
2023-01-03T01:53:32.544Z,7.22
2023-01-03T01:53:45.766Z,7.19
2023-01-03T01:53:56.509Z,7.20
2023-01-03T01:54:07.240Z,7.20
2023-01-03T01:54:17.979Z,7.20
2023-01-03T01:54:30.238Z,7.17
2023-01-03T01:54:40.988Z,7.17
2023-01-03T01:54:51.752Z,7.17
2023-01-03T01:55:04.575Z,7.16
2023-01-03T01:55:15.311Z,7.16
2023-01-03T01:55:27.769Z,7.16
2023-01-03T01:55:38.498Z,7.16
2023-01-03T01:55:49.236Z,7.13
2023-01-03T01:56:00.092Z,7.15
2023-01-03T01:56:10.986Z,7.15
2023-01-03T01:56:22.762Z,7.12
2023-01-03T01:56:34.446Z,7.13
2023-01-03T01:56:46.867Z,7.13
2023-01-03T01:56:57.608Z,7.09
2023-01-03T01:57:08.384Z,7.09
2023-01-03T01:57:19.131Z,7.08
2023-01-03T01:57:32.045Z,7.07
2023-01-03T01:57:44.297Z,7.07
2023-01-03T01:57:57.278Z,7.07
2023-01-03T01:58:08.056Z,7.05
2023-01-03T01:58:20.472Z,7.04
2023-01-03T01:58:32.705Z,7.02
2023-01-03T01:58:46.465Z,7.02
2023-01-03T01:58:58.218Z,7.01
2023-01-03T01:59:08.956Z,6.99
2023-01-03T01:59:20.658Z,6.99
2023-01-03T01:59:31.435Z,6.98
2023-01-03T01:59:42.168Z,6.98
2023-01-03T01:59:53.878Z,6.98
2023-01-03T02:00:05.571Z,6.95
2023-01-03T02:00:18.014Z,6.97
2023-01-03T02:00:28.737Z,6.95
2023-01-03T02:00:41.978Z,6.94
2023-01-03T02:00:54.391Z,6.94
2023-01-03T02:01:06.869Z,6.94
2023-01-03T02:01:17.698Z,6.91
2023-01-03T02:01:28.596Z,6.94
2023-01-03T02:01:39.429Z,6.91
2023-01-03T02:01:51.268Z,6.90
2023-01-03T02:02:02.302Z,6.90
2023-01-03T02:02:14.190Z,6.91
2023-01-03T02:02:25.111Z,6.89
2023-01-03T02:02:37.952Z,6.89
2023-01-03T02:02:48.959Z,6.87
2023-01-03T02:02:59.963Z,6.87
2023-01-03T02:03:10.851Z,6.87
2023-01-03T02:03:23.165Z,6.87
2023-01-03T02:03:33.970Z,6.86
2023-01-03T02:03:46.972Z,6.84
2023-01-03T02:03:57.689Z,6.84
2023-01-03T02:04:08.439Z,6.84
2023-01-03T02:04:19.174Z,6.83
2023-01-03T02:04:29.899Z,6.83
2023-01-03T02:04:41.612Z,6.83
2023-01-03T02:04:54.165Z,6.81
2023-01-03T02:05:04.920Z,6.80
2023-01-03T02:05:15.664Z,6.80
2023-01-03T02:05:28.181Z,6.79
2023-01-03T02:05:38.913Z,6.77
2023-01-03T02:05:52.131Z,6.76
2023-01-03T02:06:02.878Z,6.76
2023-01-03T02:06:13.661Z,6.73
2023-01-03T02:06:25.333Z,6.72
2023-01-03T02:06:36.150Z,6.69
2023-01-03T02:06:46.891Z,6.71
2023-01-03T02:07:00.509Z,6.71
2023-01-03T02:07:11.290Z,6.68
2023-01-03T02:07:22.048Z,6.68
2023-01-03T02:07:33.751Z,6.65
2023-01-03T02:07:44.531Z,6.65
2023-01-03T02:07:58.281Z,6.65
2023-01-03T02:08:10.015Z,6.62
2023-01-03T02:08:20.814Z,6.62
2023-01-03T02:08:31.551Z,6.62
2023-01-03T02:08:43.281Z,6.59
2023-01-03T02:08:56.499Z,6.58
2023-01-03T02:09:08.760Z,6.58
2023-01-03T02:09:21.283Z,6.58
2023-01-03T02:09:32.039Z,6.54
2023-01-03T02:09:42.772Z,6.54
2023-01-03T02:09:55.191Z,6.53
2023-01-03T02:10:05.940Z,6.51
2023-01-03T02:10:16.676Z,6.51
2023-01-03T02:10:27.409Z,6.53
2023-01-03T02:10:38.181Z,6.50
2023-01-03T02:10:48.920Z,6.50
2023-01-03T02:10:59.699Z,6.48
2023-01-03T02:11:10.455Z,6.48
2023-01-03T02:11:21.239Z,6.48
2023-01-03T02:11:33.689Z,6.46
2023-01-03T02:11:44.421Z,6.46
2023-01-03T02:11:55.152Z,6.44
2023-01-03T02:12:05.910Z,6.44
2023-01-03T02:12:16.649Z,6.43
2023-01-03T02:12:29.107Z,6.43
2023-01-03T02:12:39.864Z,6.41
2023-01-03T02:12:50.618Z,6.41
2023-01-03T02:13:01.373Z,6.41
2023-01-03T02:13:12.110Z,6.36
2023-01-03T02:13:22.851Z,6.38
2023-01-03T02:13:33.605Z,6.36
2023-01-03T02:13:45.306Z,6.35
2023-01-03T02:13:57.521Z,6.35
2023-01-03T02:14:09.970Z,6.35
2023-01-03T02:14:20.714Z,6.33
2023-01-03T02:14:31.445Z,6.32
2023-01-03T02:14:43.877Z,6.32
2023-01-03T02:14:54.590Z,6.29
2023-01-03T02:15:06.320Z,6.29
2023-01-03T02:15:17.073Z,6.26
2023-01-03T02:15:27.831Z,6.26
2023-01-03T02:15:39.584Z,6.26
2023-01-03T02:15:50.457Z,6.25
2023-01-03T02:16:01.213Z,6.22
2023-01-03T02:16:12.091Z,6.25
2023-01-03T02:16:22.919Z,6.25
2023-01-03T02:16:33.658Z,6.25
2023-01-03T02:16:44.376Z,6.25
2023-01-03T02:16:55.132Z,6.25
2023-01-03T02:17:07.853Z,6.25
2023-01-03T02:17:18.619Z,6.25
2023-01-03T02:17:29.355Z,6.25
2023-01-03T02:17:40.113Z,6.25
2023-01-03T02:17:50.895Z,6.25
2023-01-03T02:18:03.349Z,6.26
2023-01-03T02:18:18.121Z,6.28
2023-01-03T02:18:30.367Z,6.28
2023-01-03T02:18:41.123Z,6.28
2023-01-03T02:18:51.871Z,6.28
2023-01-03T02:19:04.101Z,6.28
2023-01-03T02:19:16.345Z,6.26
2023-01-03T02:19:29.333Z,6.26
2023-01-03T02:19:41.064Z,6.26
2023-01-03T02:19:51.831Z,6.25
2023-01-03T02:20:02.557Z,6.22
2023-01-03T02:20:13.294Z,6.22
2023-01-03T02:20:24.914Z,6.21
2023-01-03T02:20:35.662Z,6.19
2023-01-03T02:20:46.412Z,6.19
2023-01-03T02:20:58.612Z,6.18
2023-01-03T02:21:09.355Z,6.19
2023-01-03T02:21:21.781Z,6.18
2023-01-03T02:21:34.021Z,6.18
2023-01-03T02:21:46.215Z,6.16
2023-01-03T02:21:57.059Z,6.16
2023-01-03T02:22:07.806Z,6.16
2023-01-03T02:22:18.532Z,6.16
2023-01-03T02:22:30.246Z,6.14
2023-01-03T02:22:42.673Z,6.14
2023-01-03T02:22:54.395Z,6.14
2023-01-03T02:23:05.120Z,6.13
2023-01-03T02:23:15.880Z,6.11
2023-01-03T02:23:26.623Z,6.11
2023-01-03T02:23:37.375Z,6.11
2023-01-03T02:23:48.102Z,6.10
2023-01-03T02:24:01.333Z,6.10
2023-01-03T02:24:12.101Z,6.10
2023-01-03T02:24:24.544Z,6.09
2023-01-03T02:24:35.284Z,6.09
2023-01-03T02:24:48.502Z,6.07
2023-01-03T02:24:59.243Z,6.06
2023-01-03T02:25:09.988Z,6.06
2023-01-03T02:25:21.685Z,6.04
2023-01-03T02:25:34.164Z,6.04
2023-01-03T02:25:44.933Z,6.01
2023-01-03T02:25:56.721Z,6.01
2023-01-03T02:26:09.173Z,6.00
2023-01-03T02:26:19.904Z,6.00
2023-01-03T02:26:32.345Z,5.98
2023-01-03T02:26:46.603Z,5.98
2023-01-03T02:26:58.317Z,5.98
2023-01-03T02:27:10.756Z,5.96
2023-01-03T02:27:23.877Z,5.95
2023-01-03T02:27:36.342Z,5.93
2023-01-03T02:27:47.087Z,5.93
2023-01-03T02:27:59.577Z,5.92
2023-01-03T02:28:10.332Z,5.91
2023-01-03T02:28:21.077Z,5.91
2023-01-03T02:28:32.124Z,5.91
2023-01-03T02:28:45.364Z,5.88
2023-01-03T02:28:58.606Z,5.86
2023-01-03T02:29:09.345Z,5.88
2023-01-03T02:29:21.813Z,5.85
2023-01-03T02:29:33.531Z,5.85
2023-01-03T02:29:47.783Z,5.85
2023-01-03T02:30:01.046Z,5.83
2023-01-03T02:30:11.826Z,5.82
2023-01-03T02:30:22.556Z,5.81
2023-01-03T02:30:33.297Z,5.78
2023-01-03T02:30:45.037Z,5.82
2023-01-03T02:30:55.887Z,5.78
2023-01-03T02:31:06.639Z,5.77
2023-01-03T02:31:18.379Z,5.77
2023-01-03T02:31:29.159Z,5.77
2023-01-03T02:31:40.944Z,5.77
2023-01-03T02:31:52.667Z,5.77